Time;durP1;ratioP1;P1;durP2;ratioP2;P2;SDS_P1;SDS_P2;PMS_P1;PMS_P2;Temp;Humidity;BMP_temperature;BMP_pressure;BME280_temperature;BME280_humidity;BME280_pressure;Samples;Min_cycle;Max_cycle;Signal;HPM_P1;HPM_P2
2022/12/17 13:06:35;;;;;;;15.40;5.35;;;;;;;;;;4954379;28;20099;-57
2022/12/17 13:09:08;;;;;;;9.10;4.78;;;;;;;;;;4954414;29;20051;-57
2022/12/17 13:11:37;;;;;;;11.82;5.25;;;;;;;;;;4952840;29;20122;-59
2022/12/17 13:14:05;;;;;;;12.95;4.72;;;;;;;;;;4954576;28;20137;-61
2022/12/17 13:16:33;;;;;;;11.63;4.85;;;;;;;;;;4969043;28;20050;-60
2022/12/17 13:19:18;;;;;;;9.57;5.00;;;;;;;;;;4952487;29;20047;-61
2022/12/17 13:21:44;;;;;;;9.75;5.38;;;;;;;;;;4954085;29;20385;-61
2022/12/17 13:24:10;;;;;;;11.18;5.38;;;;;;;;;;4953283;28;20471;-65
2022/12/17 13:26:39;;;;;;;11.10;4.75;;;;;;;;;;4954626;28;20047;-62
2022/12/17 13:29:13;;;;;;;11.63;4.75;;;;;;;;;;4954303;29;20051;-63
2022/12/17 13:31:42;;;;;;;8.55;4.45;;;;;;;;;;4968436;28;20134;-60
2022/12/17 13:34:08;;;;;;;9.65;4.53;;;;;;;;;;4954250;28;20040;-59
2022/12/17 13:36:40;;;;;;;10.07;4.53;;;;;;;;;;4954542;29;20039;-58
2022/12/17 13:39:06;;;;;;;9.32;4.60;;;;;;;;;;4971170;28;20047;-58
2022/12/17 13:41:32;;;;;;;12.38;4.35;;;;;;;;;;4977365;28;20046;-59
2022/12/17 13:44:03;;;;;;;8.40;4.40;;;;;;;;;;4981626;28;20118;-59
2022/12/17 13:46:34;;;;;;;11.13;4.18;;;;;;;;;;4965596;28;20061;-58
2022/12/17 13:49:01;;;;;;;7.22;3.65;;;;;;;;;;4987314;28;20085;-59
2022/12/17 13:51:28;;;;;;;8.30;4.15;;;;;;;;;;4992763;28;20077;-60
2022/12/17 13:53:58;;;;;;;11.15;4.47;;;;;;;;;;4994892;28;20146;-59
2022/12/17 13:56:25;;;;;;;10.00;3.97;;;;;;;;;;4996617;28;20038;-59
2022/12/17 13:58:52;;;;;;;9.35;3.90;;;;;;;;;;4996423;28;20517;-59
2022/12/17 14:01:18;;;;;;;7.55;3.53;;;;;;;;;;4995685;28;20077;-59
2022/12/17 14:03:48;;;;;;;8.00;4.35;;;;;;;;;;4987994;28;20117;-59
2022/12/17 14:06:14;;;;;;;7.95;3.70;;;;;;;;;;4978563;28;20514;-60
2022/12/17 14:08:40;;;;;;;8.77;4.70;;;;;;;;;;4979409;28;20074;-60
2022/12/17 14:13:51;;;;;;;11.55;4.30;;;;;;;;;;4985055;28;20047;-59
2022/12/17 14:16:17;;;;;;;9.43;4.07;;;;;;;;;;4984331;28;20050;-59
2022/12/17 14:18:46;;;;;;;8.43;4.30;;;;;;;;;;4989640;28;20043;-60
2022/12/17 14:21:12;;;;;;;6.80;4.10;;;;;;;;;;4986009;28;20585;-59
2022/12/17 14:23:38;;;;;;;12.65;4.50;;;;;;;;;;4976706;28;20129;-60
2022/12/17 14:26:04;;;;;;;9.77;4.43;;;;;;;;;;4976234;28;20410;-61
2022/12/17 14:28:31;;;;;;;8.40;4.18;;;;;;;;;;4975601;28;20778;-63
2022/12/17 14:31:29;;;;;;;10.38;4.50;;;;;;;;;;4976809;28;20050;-62
2022/12/17 14:33:55;;;;;;;;;;;;;;;;;;4969077;28;20154;-63
2022/12/17 14:36:22;;;;;;;6.93;3.83;;;;;;;;;;4975290;28;19929;-63
2022/12/17 14:38:58;;;;;;;9.57;4.38;;;;;;;;;;4976516;28;20070;-62
2022/12/17 14:44:26;;;;;;;9.95;4.20;;;;;;;;;;4948015;28;20047;-59
2022/12/17 14:47:12;;;;;;;9.00;4.53;;;;;;;;;;4976218;28;20384;-59
2022/12/17 14:49:39;;;;;;;8.02;4.20;;;;;;;;;;4975357;28;20058;-60
2022/12/17 14:52:12;;;;;;;7.65;3.83;;;;;;;;;;4974458;28;20042;-63
2022/12/17 14:54:43;;;;;;;9.38;5.07;;;;;;;;;;4976193;28;20043;-60
2022/12/17 14:57:17;;;;;;;10.65;4.65;;;;;;;;;;4968980;28;20046;-62
2022/12/17 14:59:43;;;;;;;9.32;4.90;;;;;;;;;;4962705;28;20039;-60
2022/12/17 15:02:22;;;;;;;9.38;4.40;;;;;;;;;;4963198;28;20084;-63
2022/12/17 15:04:48;;;;;;;9.63;4.63;;;;;;;;;;4964082;28;20101;-60
2022/12/17 15:10:57;;;;;;;10.15;5.03;;;20.90;46.40;;;;;;5073963;27;20947;-60
2022/12/17 15:13:22;;;;;;;9.60;5.00;;;20.90;46.50;;;;;;5075399;28;20037;-60
2022/12/17 15:15:48;;;;;;;11.48;5.18;;;20.90;46.70;;;;;;5075095;28;20098;-59
2022/12/17 15:18:13;;;;;;;8.73;4.53;;;20.80;46.70;;;;;;5072644;28;20040;-60
2022/12/17 15:20:39;;;;;;;10.73;4.93;;;20.90;46.80;;;;;;5075710;28;20575;-58
2022/12/17 15:23:05;;;;;;;8.55;4.20;;;20.80;46.80;;;;;;5074493;28;20047;-57
2022/12/17 15:25:30;;;;;;;10.98;4.65;;;20.80;46.90;;;;;;5074914;28;20044;-59
2022/12/17 15:27:56;;;;;;;9.43;4.63;;;20.80;46.90;;;;;;5079148;28;20069;-59
2022/12/17 15:30:21;;;;;;;8.52;4.03;;;20.80;47.00;;;;;;5069241;28;20040;-59
2022/12/17 15:32:47;;;;;;;10.05;4.15;;;20.80;47.10;;;;;;5077895;28;20044;-59
2022/12/17 15:35:13;;;;;;;7.70;4.22;;;20.80;47.10;;;;;;5073737;28;20052;-59
2022/12/17 15:37:38;;;;;;;13.95;4.53;;;20.70;47.00;;;;;;5077753;28;20032;-59
2022/12/17 15:40:05;;;;;;;7.90;4.32;;;20.70;47.00;;;;;;5077198;28;20462;-58
2022/12/17 15:45:14;;;;;;;8.15;4.53;;;20.80;47.20;;;;;;5072013;28;20412;-59
2022/12/17 15:47:40;;;;;;;9.05;4.35;;;20.80;47.20;;;;;;5074801;28;20469;-60
2022/12/17 15:50:06;;;;;;;9.73;4.47;;;20.80;47.20;;;;;;5074339;28;20051;-59
2022/12/17 15:52:32;;;;;;;8.73;4.40;;;20.80;47.20;;;;;;5075402;28;20036;-60
2022/12/17 15:54:57;;;;;;;12.13;4.75;;;20.70;47.10;;;;;;5068856;28;20048;-59
2022/12/17 15:57:23;;;;;;;11.05;4.82;;;20.70;47.10;;;;;;5070030;28;20515;-61
2022/12/17 15:59:50;;;;;;;10.25;5.30;;;20.70;47.00;;;;;;5065213;28;20045;-60
2022/12/17 16:02:15;;;;;;;9.07;4.97;;;20.80;47.10;;;;;;5069976;28;20052;-60
2022/12/17 16:04:41;;;;;;;8.82;4.72;;;20.70;47.00;;;;;;5070705;28;20039;-60
2022/12/17 16:07:06;;;;;;;11.40;5.68;;;20.70;47.00;;;;;;5068592;28;20093;-60
2022/12/17 16:09:32;;;;;;;11.50;4.90;;;20.70;46.90;;;;;;5069626;28;20059;-60
2022/12/17 16:11:57;;;;;;;8.05;4.28;;;20.70;46.90;;;;;;5076151;28;20037;-60
2022/12/17 16:14:23;;;;;;;8.73;4.95;;;20.70;47.00;;;;;;5071280;28;20045;-60
2022/12/17 16:16:49;;;;;;;8.93;4.90;;;20.70;46.90;;;;;;5075271;28;20041;-60
2022/12/17 16:19:14;;;;;;;8.57;4.82;;;20.70;46.80;;;;;;5075648;28;20044;-60
2022/12/17 16:21:40;;;;;;;8.60;4.88;;;20.70;46.90;;;;;;5063551;28;20033;-60
2022/12/17 16:24:06;;;;;;;9.07;5.10;;;20.70;46.80;;;;;;5063852;28;20573;-60
2022/12/17 16:26:31;;;;;;;9.77;4.95;;;20.70;46.70;;;;;;5060725;28;20654;-59
2022/12/17 16:28:57;;;;;;;9.95;5.28;;;20.70;46.70;;;;;;5061634;28;20044;-60
2022/12/17 16:31:23;;;;;;;7.50;4.75;;;20.70;46.70;;;;;;5063121;28;20041;-62
2022/12/17 16:33:48;;;;;;;9.00;5.28;;;20.70;46.50;;;;;;5061856;28;20037;-61
2022/12/17 16:36:15;;;;;;;7.95;4.72;;;20.70;46.50;;;;;;5063006;28;20139;-61
2022/12/17 16:38:48;;;;;;;9.55;5.03;;;20.70;46.60;;;;;;5063641;28;20037;-60
2022/12/17 16:41:14;;;;;;;10.10;6.10;;;20.70;46.70;;;;;;5054756;28;20040;-61
2022/12/17 16:43:40;;;;;;;9.57;6.00;;;20.70;46.40;;;;;;5062710;28;20037;-61
2022/12/17 16:46:12;;;;;;;13.32;7.70;;;20.60;46.20;;;;;;5061349;28;20047;-61
2022/12/17 16:48:38;;;;;;;13.52;7.80;;;20.70;46.00;;;;;;5058088;28;20519;-60
2022/12/17 16:51:17;;;;;;;15.00;7.95;;;20.60;45.80;;;;;;5060574;28;20052;-59
2022/12/17 16:53:43;;;;;;;15.60;9.27;;;20.60;45.30;;;;;;5059824;28;20094;-60
2022/12/17 16:56:15;;;;;;;13.93;8.88;;;20.60;45.30;;;;;;5059916;28;20119;-60
2022/12/17 16:58:41;;;;;;;14.68;9.15;;;20.60;45.00;;;;;;5063384;28;20029;-59
2022/12/17 17:01:07;;;;;;;14.77;9.38;;;20.60;44.90;;;;;;5056723;28;20044;-61
2022/12/17 17:03:32;;;;;;;15.55;9.60;;;20.50;44.80;;;;;;5054637;28;20037;-60
2022/12/17 17:06:02;;;;;;;14.48;8.68;;;20.50;44.60;;;;;;5058961;28;20084;-60
2022/12/17 17:08:28;;;;;;;16.20;10.10;;;20.50;44.50;;;;;;5054086;28;20079;-61
2022/12/17 17:10:53;;;;;;;17.77;9.90;;;20.50;44.40;;;;;;5053299;28;20088;-60
2022/12/17 17:13:19;;;;;;;23.65;11.38;;;20.50;44.30;;;;;;5053563;28;20102;-60
2022/12/17 17:15:44;;;;;;;22.95;11.65;;;20.50;44.30;;;;;;5054476;28;20436;-60
2022/12/17 17:18:10;;;;;;;21.85;11.20;;;20.50;44.40;;;;;;5053223;28;20044;-60
2022/12/17 17:20:35;;;;;;;23.08;10.95;;;20.40;44.40;;;;;;5054583;28;20076;-60
2022/12/17 17:23:01;;;;;;;22.20;11.20;;;20.40;44.50;;;;;;5053578;28;20037;-60
2022/12/17 17:25:27;;;;;;;22.30;10.52;;;20.40;44.60;;;;;;5053232;28;20045;-59
2022/12/17 17:27:53;;;;;;;21.65;10.38;;;20.40;45.30;;;;;;5054080;28;20358;-59
2022/12/17 17:30:18;;;;;;;21.75;11.02;;;20.40;44.70;;;;;;5052709;28;20045;-59
2022/12/17 17:32:44;;;;;;;24.00;11.23;;;20.40;44.60;;;;;;5053139;28;20044;-59
2022/12/17 17:35:09;;;;;;;19.50;9.93;;;20.40;44.70;;;;;;5053252;28;20037;-59
2022/12/17 17:37:35;;;;;;;22.10;10.90;;;20.40;44.80;;;;;;5052674;28;20037;-60
2022/12/17 17:40:00;;;;;;;19.90;10.52;;;20.40;44.80;;;;;;5050760;28;20516;-60
2022/12/17 17:42:26;;;;;;;19.38;9.90;;;20.40;44.90;;;;;;5052703;28;20237;-60
2022/12/17 17:44:52;;;;;;;19.55;9.80;;;20.40;45.00;;;;;;5052140;28;20047;-60
2022/12/17 17:47:17;;;;;;;20.13;10.50;;;20.40;45.20;;;;;;5052744;28;20048;-60
2022/12/17 17:49:43;;;;;;;19.50;9.35;;;20.40;45.20;;;;;;5053201;28;20458;-60
2022/12/17 17:52:08;;;;;;;19.30;9.88;;;20.40;45.30;;;;;;5052101;28;20037;-60
2022/12/17 17:54:34;;;;;;;20.55;10.02;;;20.40;45.30;;;;;;5052918;28;20036;-60
2022/12/17 17:56:59;;;;;;;19.02;9.77;;;20.40;45.40;;;;;;5053208;28;20043;-60
2022/12/17 17:59:25;;;;;;;19.52;9.90;;;20.40;45.40;;;;;;5050913;28;20095;-60
2022/12/17 18:01:51;;;;;;;19.85;10.02;;;20.40;45.50;;;;;;5053241;28;20037;-60
2022/12/17 18:04:19;;;;;;;17.88;9.63;;;20.40;45.60;;;;;;5052897;28;20589;-60
2022/12/17 18:06:44;;;;;;;18.08;9.23;;;20.40;45.70;;;;;;5052242;28;20048;-60
2022/12/17 18:09:10;;;;;;;15.35;9.65;;;20.40;45.70;;;;;;5051693;28;20041;-60
2022/12/17 18:11:36;;;;;;;16.20;9.18;;;20.40;46.50;;;;;;5053090;28;20072;-60
2022/12/17 18:14:02;;;;;;;16.42;9.40;;;20.40;45.90;;;;;;5052350;28;20056;-60
2022/12/17 18:16:33;;;;;;;16.10;8.85;;;20.40;45.90;;;;;;5051706;28;20488;-60
2022/12/17 18:19:00;;;;;;;13.82;8.98;;;20.40;45.90;;;;;;5052820;28;20040;-61
2022/12/17 18:21:27;;;;;;;15.07;9.52;;;20.40;45.90;;;;;;5046443;28;20041;-61
2022/12/17 18:23:58;;;;;;;15.70;9.20;;;20.40;45.90;;;;;;5052233;28;20076;-60
2022/12/17 18:26:24;;;;;;;15.90;8.88;;;20.40;46.00;;;;;;5051231;28;20435;-60
2022/12/17 18:28:49;;;;;;;16.52;9.95;;;20.40;46.00;;;;;;5052530;28;20040;-60
2022/12/17 18:31:20;;;;;;;16.48;9.60;;;20.40;46.00;;;;;;5046231;28;20037;-60
2022/12/17 18:33:48;;;;;;;14.93;9.38;;;20.40;46.10;;;;;;5050661;28;20056;-60
2022/12/17 18:36:18;;;;;;;14.35;8.68;;;20.40;46.20;;;;;;5051900;28;20037;-60
2022/12/17 18:38:44;;;;;;;14.60;8.93;;;20.40;46.90;;;;;;5050298;28;20053;-60
2022/12/17 18:44:04;;;;;;;14.05;8.75;;;20.40;46.30;;;;;;5050180;28;20045;-60
2022/12/17 18:46:30;;;;;;;15.35;8.80;;;20.40;46.40;;;;;;5048776;28;20043;-59
2022/12/17 18:48:56;;;;;;;15.25;9.40;;;20.40;46.40;;;;;;5051211;28;20119;-59
2022/12/17 18:51:22;;;;;;;17.80;10.40;;;20.40;46.50;;;;;;5052607;28;20067;-59
2022/12/17 18:53:48;;;;;;;15.48;9.82;;;20.40;46.30;;;;;;5052559;28;20389;-59
2022/12/17 18:56:14;;;;;;;17.52;10.82;;;20.40;46.10;;;;;;5051265;28;20133;-60
2022/12/17 18:58:39;;;;;;;17.75;10.13;;;20.40;46.10;;;;;;5052031;28;20385;-59
2022/12/17 19:01:05;;;;;;;17.33;11.02;;;20.40;46.00;;;;;;5052173;28;20041;-60
2022/12/17 19:03:31;;;;;;;19.85;11.27;;;20.30;45.80;;;;;;5050969;28;20037;-60
2022/12/17 19:05:56;;;;;;;17.67;11.20;;;20.40;45.90;;;;;;5052480;28;20049;-60
2022/12/17 19:08:22;;;;;;;17.85;10.32;;;20.30;45.70;;;;;;5051829;28;20033;-60
2022/12/17 19:10:48;;;;;;;16.85;10.48;;;20.30;45.60;;;;;;5051663;28;20057;-59
2022/12/17 19:13:13;;;;;;;18.33;11.05;;;20.30;45.60;;;;;;5052027;28;20041;-59
2022/12/17 19:15:39;;;;;;;17.13;11.63;;;20.30;45.50;;;;;;5050610;28;20048;-59
2022/12/17 19:18:04;;;;;;;17.50;10.95;;;20.30;45.50;;;;;;5051841;28;20044;-59
2022/12/17 19:20:30;;;;;;;17.02;11.13;;;20.30;45.50;;;;;;5048895;28;20095;-59
2022/12/17 19:22:55;;;;;;;18.02;11.27;;;20.30;45.50;;;;;;5049325;28;20499;-59
2022/12/17 19:25:21;;;;;;;16.13;10.73;;;20.30;45.50;;;;;;5052051;28;20075;-59
2022/12/17 19:27:47;;;;;;;15.73;9.98;;;20.30;45.60;;;;;;5052485;28;20045;-62
2022/12/17 19:30:13;;;;;;;18.42;11.18;;;20.30;45.60;;;;;;5048642;28;20051;-61
2022/12/17 19:32:38;;;;;;;18.00;11.50;;;20.30;45.50;;;;;;5051580;28;20045;-61
2022/12/17 19:35:04;;;;;;;17.65;11.23;;;20.30;45.50;;;;;;5051914;28;20056;-60
2022/12/17 19:37:30;;;;;;;16.48;10.68;;;20.30;45.50;;;;;;5051262;28;20037;-59
2022/12/17 19:39:55;;;;;;;17.25;10.98;;;20.30;45.60;;;;;;5052312;28;20084;-60
2022/12/17 19:42:23;;;;;;;17.35;10.13;;;20.30;45.80;;;;;;5050295;28;20044;-60
2022/12/17 19:44:50;;;;;;;;;;;20.30;45.80;;;;;;5051930;28;20041;-60
2022/12/17 19:47:15;;;;;;;16.08;11.13;;;20.30;45.90;;;;;;5051298;28;19971;-60
2022/12/17 19:49:41;;;;;;;18.17;10.90;;;20.20;45.90;;;;;;5051995;28;20080;-60
2022/12/17 19:52:06;;;;;;;16.40;10.70;;;20.30;45.80;;;;;;5051297;28;20052;-60
2022/12/17 19:54:32;;;;;;;15.55;10.02;;;20.30;45.80;;;;;;5050528;28;20052;-60
2022/12/17 19:56:57;;;;;;;18.73;11.98;;;20.30;45.80;;;;;;5054729;28;20401;-60
2022/12/17 19:59:23;;;;;;;18.50;11.32;;;20.30;45.90;;;;;;5053314;28;20029;-60
2022/12/17 20:01:48;;;;;;;17.17;11.07;;;20.30;45.90;;;;;;5055593;28;20040;-60
2022/12/17 20:04:15;;;;;;;17.17;10.70;;;20.30;45.90;;;;;;5055748;28;20037;-60
2022/12/17 20:06:41;;;;;;;15.30;10.45;;;20.30;45.90;;;;;;5055092;28;20051;-60
2022/12/17 20:09:06;;;;;;;16.02;10.20;;;20.30;45.90;;;;;;5055399;28;20057;-61
2022/12/17 20:11:32;;;;;;;16.75;10.65;;;20.30;45.90;;;;;;5055222;28;20056;-61
2022/12/17 20:13:59;;;;;;;15.85;10.88;;;20.30;45.90;;;;;;5053522;28;20713;-60
2022/12/17 20:16:24;;;;;;;18.95;12.05;;;20.30;45.90;;;;;;5053052;28;20045;-60
2022/12/17 20:18:50;;;;;;;18.98;12.15;;;20.30;45.90;;;;;;5053854;28;20055;-59
2022/12/17 20:21:16;;;;;;;19.38;11.82;;;20.30;45.80;;;;;;5054425;28;20041;-60
2022/12/17 20:23:41;;;;;;;17.05;10.95;;;20.40;45.90;;;;;;5049074;28;20086;-61
2022/12/17 20:26:09;;;;;;;19.17;12.45;;;20.30;45.80;;;;;;5054344;28;20049;-61
2022/12/17 20:28:35;;;;;;;18.85;12.15;;;20.40;45.90;;;;;;5054767;28;20056;-61
2022/12/17 20:31:01;;;;;;;18.17;11.55;;;20.30;45.80;;;;;;5053904;28;20795;-61
2022/12/17 20:33:27;;;;;;;17.77;11.02;;;20.30;45.80;;;;;;5058770;28;20068;-61
2022/12/17 20:35:52;;;;;;;19.95;12.07;;;20.40;45.90;;;;;;5061414;28;20098;-60
2022/12/17 20:38:18;;;;;;;18.75;12.15;;;20.30;45.80;;;;;;5062167;28;20067;-60
2022/12/17 20:40:44;;;;;;;16.60;11.20;;;20.40;45.80;;;;;;5059875;28;20033;-61
2022/12/17 20:43:09;;;;;;;17.92;11.82;;;20.40;45.90;;;;;;5061464;28;20048;-61
2022/12/17 20:45:35;;;;;;;19.23;12.23;;;20.40;45.80;;;;;;5061284;28;20495;-60
2022/12/17 20:48:00;;;;;;;20.05;12.48;;;20.40;45.70;;;;;;5062130;28;20046;-61
2022/12/17 20:50:26;;;;;;;17.70;11.52;;;20.40;45.60;;;;;;5059219;28;20125;-60
2022/12/17 20:52:52;;;;;;;17.45;11.27;;;20.30;45.60;;;;;;5061772;28;20538;-60
2022/12/17 20:55:17;;;;;;;20.52;12.15;;;20.30;45.60;;;;;;5060706;28;20043;-60
2022/12/17 20:57:43;;;;;;;18.95;12.38;;;20.30;45.50;;;;;;5061952;28;20036;-61
2022/12/17 21:00:09;;;;;;;21.67;13.25;;;20.30;45.40;;;;;;5060683;28;20040;-61
2022/12/17 21:02:35;;;;;;;20.70;12.90;;;20.30;45.50;;;;;;5059725;28;20044;-60
2022/12/17 21:05:01;;;;;;;19.48;12.90;;;20.30;45.50;;;;;;5060921;28;20130;-60
2022/12/17 21:07:26;;;;;;;19.77;12.73;;;20.30;45.50;;;;;;5057536;28;20123;-62
2022/12/17 21:09:52;;;;;;;20.02;13.30;;;20.30;45.50;;;;;;5062579;28;20053;-59
2022/12/17 21:12:17;;;;;;;19.27;12.77;;;20.30;45.40;;;;;;5060571;28;20044;-59
2022/12/17 21:14:43;;;;;;;21.27;12.90;;;20.30;45.40;;;;;;5058360;28;20036;-59
2022/12/17 21:17:09;;;;;;;19.90;13.38;;;20.30;45.30;;;;;;5061166;28;20520;-60
2022/12/17 21:19:34;;;;;;;21.00;13.57;;;20.30;45.30;;;;;;5060761;28;20544;-60
2022/12/17 21:22:00;;;;;;;20.98;13.70;;;20.30;45.30;;;;;;5055929;28;20033;-59
2022/12/17 21:24:25;;;;;;;20.20;13.10;;;20.30;45.30;;;;;;5053233;28;20054;-60
2022/12/17 21:26:51;;;;;;;21.73;14.02;;;20.30;45.30;;;;;;5058464;28;20048;-59
2022/12/17 21:29:17;;;;;;;20.20;13.05;;;20.20;45.20;;;;;;5058401;28;20048;-59
2022/12/17 21:31:47;;;;;;;23.67;14.38;;;20.20;45.20;;;;;;5059839;28;20118;-59
2022/12/17 21:34:15;;;;;;;20.42;12.93;;;20.20;45.20;;;;;;5059643;28;20060;-59
2022/12/17 21:36:40;;;;;;;22.05;14.07;;;20.20;45.10;;;;;;5060240;28;20048;-60
2022/12/17 21:39:08;;;;;;;22.88;14.10;;;20.20;45.10;;;;;;5063583;28;20040;-59
2022/12/17 21:41:34;;;;;;;22.63;14.10;;;20.20;45.10;;;;;;5058735;28;20510;-60
2022/12/17 21:44:04;;;;;;;22.08;14.23;;;20.20;45.10;;;;;;5055272;28;20044;-61
2022/12/17 21:46:30;;;;;;;21.35;13.65;;;20.20;45.10;;;;;;5058476;28;20044;-60
2022/12/17 21:48:56;;;;;;;22.15;13.85;;;20.20;45.10;;;;;;5061815;28;20044;-60
2022/12/17 21:51:22;;;;;;;21.40;14.13;;;20.20;45.10;;;;;;5060095;28;20399;-62
2022/12/17 21:53:55;;;;;;;24.25;14.73;;;20.10;45.10;;;;;;5060964;28;20041;-61
2022/12/17 21:56:20;;;;;;;21.50;13.80;;;20.10;45.10;;;;;;5060125;28;20073;-60
2022/12/17 21:58:46;;;;;;;22.52;13.70;;;20.10;45.30;;;;;;5059242;28;20067;-61
2022/12/17 22:01:11;;;;;;;24.50;14.57;;;20.10;45.30;;;;;;5056065;28;20495;-61
2022/12/17 22:03:37;;;;;;;22.08;13.95;;;20.10;45.30;;;;;;5057697;28;20073;-61
2022/12/17 22:06:10;;;;;;;21.13;14.15;;;20.10;45.30;;;;;;5050888;28;20175;-61
2022/12/17 22:08:36;;;;;;;24.55;15.00;;;20.10;45.30;;;;;;5057622;28;20098;-61
2022/12/17 22:11:17;;;;;;;23.73;14.38;;;20.10;45.30;;;;;;5061285;28;20044;-60
2022/12/17 22:14:01;;;;;;;24.13;14.93;;;20.10;45.20;;;;;;5060238;28;20044;-60
2022/12/17 22:16:35;;;;;;;23.63;14.63;;;20.10;45.30;;;;;;5061010;28;20413;-60
2022/12/17 22:19:01;;;;;;;22.15;13.90;;;20.10;45.20;;;;;;5055932;28;20123;-60
2022/12/17 22:21:27;;;;;;;22.25;13.95;;;20.00;45.20;;;;;;5060130;28;20040;-60
2022/12/17 22:23:52;;;;;;;21.00;13.07;;;20.00;45.20;;;;;;5060187;28;20047;-60
2022/12/17 22:26:18;;;;;;;21.65;13.82;;;20.00;45.20;;;;;;5053544;28;20166;-60
2022/12/17 22:28:48;;;;;;;22.92;14.27;;;20.00;45.20;;;;;;5059040;28;20122;-60
2022/12/17 22:33:59;;;;;;;22.10;14.18;;;20.00;45.20;;;;;;5058945;28;20045;-60
2022/12/17 22:36:27;;;;;;;20.77;13.65;;;20.00;45.20;;;;;;5056690;28;20135;-60
2022/12/17 22:38:53;;;;;;;24.67;14.93;;;20.00;45.10;;;;;;5060064;28;20053;-60
2022/12/17 22:44:03;;;;;;;24.02;14.77;;;20.00;45.20;;;;;;5054004;28;20488;-60
2022/12/17 22:46:29;;;;;;;22.63;14.00;;;19.90;45.20;;;;;;5053326;28;20045;-61
2022/12/17 22:48:55;;;;;;;22.65;14.38;;;20.00;45.20;;;;;;5061272;28;20045;-61
2022/12/17 22:51:21;;;;;;;22.08;14.68;;;19.90;45.10;;;;;;5055933;28;20041;-60
2022/12/17 22:53:47;;;;;;;26.63;14.95;;;19.90;44.90;;;;;;5051937;28;20045;-61
2022/12/17 22:56:12;;;;;;;25.10;15.65;;;19.90;44.90;;;;;;5051834;28;20085;-60
2022/12/17 22:58:38;;;;;;;24.98;14.35;;;19.80;45.60;;;;;;5052584;28;20044;-59
2022/12/17 23:01:04;;;;;;;24.25;14.90;;;19.80;44.80;;;;;;5050548;28;20041;-60
2022/12/17 23:03:29;;;;;;;26.40;15.00;;;19.70;44.70;;;;;;5052324;28;20037;-60
2022/12/17 23:06:08;;;;;;;25.58;15.77;;;19.70;44.60;;;;;;5052291;28;20041;-60
2022/12/17 23:08:34;;;;;;;27.40;16.90;;;19.60;44.50;;;;;;5050486;28;20049;-59
2022/12/17 23:11:05;;;;;;;25.27;14.93;;;19.60;44.60;;;;;;5052455;28;20045;-60
2022/12/17 23:13:31;;;;;;;24.42;15.07;;;19.60;45.20;;;;;;5052008;28;20049;-60
2022/12/17 23:15:56;;;;;;;27.38;15.52;;;19.50;44.50;;;;;;5051671;28;20087;-59
2022/12/17 23:18:22;;;;;;;26.13;15.77;;;19.50;44.50;;;;;;5051939;28;20044;-59
2022/12/17 23:20:47;;;;;;;25.67;15.55;;;19.50;44.50;;;;;;5051982;28;20480;-60
2022/12/17 23:23:13;;;;;;;25.23;15.02;;;19.40;44.40;;;;;;5066698;28;20201;-59
2022/12/17 23:25:38;;;;;;;25.00;15.95;;;19.40;44.50;;;;;;5052345;28;20103;-59
2022/12/17 23:28:04;;;;;;;26.13;16.13;;;19.40;44.50;;;;;;5052176;28;20088;-60
2022/12/17 23:30:30;;;;;;;25.80;15.38;;;19.40;44.50;;;;;;5051485;28;20598;-59
2022/12/17 23:32:56;;;;;;;25.08;15.48;;;19.30;44.40;;;;;;5056396;28;20554;-57
2022/12/17 23:35:21;;;;;;;26.10;15.93;;;19.30;44.40;;;;;;5051331;28;20037;-57
2022/12/17 23:37:48;;;;;;;24.27;15.38;;;19.30;44.40;;;;;;5054738;28;20480;-58
2022/12/17 23:40:13;;;;;;;26.50;15.30;;;19.30;44.40;;;;;;5056053;28;20041;-58
2022/12/17 23:42:39;;;;;;;24.77;15.88;;;19.30;44.50;;;;;;5054802;28;20051;-57
2022/12/17 23:45:05;;;;;;;26.73;15.70;;;19.20;44.40;;;;;;5055708;28;20167;-57
2022/12/17 23:47:31;;;;;;;25.50;15.70;;;19.20;44.40;;;;;;5055752;28;20045;-57
2022/12/17 23:49:56;;;;;;;27.70;15.93;;;19.20;44.40;;;;;;5055265;28;20052;-60
2022/12/17 23:52:22;;;;;;;25.70;15.18;;;19.20;44.30;;;;;;5055267;28;20116;-60
2022/12/17 23:54:47;;;;;;;29.45;16.88;;;19.10;44.20;;;;;;5071397;28;20045;-59
2022/12/17 23:57:13;;;;;;;28.95;17.13;;;19.10;44.20;;;;;;5054591;28;20039;-60
2022/12/17 23:59:39;;;;;;;28.77;15.70;;;19.10;44.30;;;;;;5054650;28;20103;-60
